Startpagina
METAR-TAF:

METAR-TAF

Vliegvelden :

Singapore, Singapore

Internationale luchthaven Changi

breedte: 01-22N, lengte: 103-59E, hoogte: 5 m

Actueel weer

Dit bericht is 20 minuten geleden gemaakt, om 12:00 UTC
Wind 3 kt uit het noordnoordoosten, variërend tussen het noorden en het oosten
Temperatuur 28°C
Vochtigheid 84%
Druk 1010 hPa
Zicht: 8000 m
Weinig wolken op 2000 ft
Gebroken wolken op 14000 ft

METAR: WSSS 211200Z 03003KT 350V080 8000 FEW020 BKN140 28/25 Q1010 NOSIG

Tijdstip: 20:20 (12:20 UTC)

Verwachting

Dit bericht is 1 uur en het 20 minuten geleden gemaakt, om 11:00 UTC
Verwachting geldig van 21 om 12 UTC tot 22 om 18 UTC
Wind 7 kt uit het westzuidwesten
Zicht 10 km of meer
Weinig wolken op 1800 ft, Cumulonimbus.
Verspreide wolken op 2000 ft
Tijdelijke
van 21 om 23 UTC tot 22 om 03 UTC
Zicht: 3000 m
Weinig wolken op 1200 ft, Cumulonimbus.
Gebroken wolken op 1500 ft
onweer, regen

TAF: WSSS 211100Z 2112/2218 24007KT 9999 FEW018CB SCT020 TEMPO 2123/2203 3000 TSRA FEW012CB BKN015

Waarnemingen en weersverwachtingen van meer dan 4000 vliegvelden (METAR en TAF).

De beschikbare stations zijn de gele en rode punten op de kaart.

Ga met uw muis naar het station om de naam te zien.

Klik dan om waarnemingen en weersverwachtingen te zien.

kaart wijzigen: klik op de groene knoppen met een zwart kruis om in te zoomen, op de groene knop met een streepje om uit te zoomen of op de groene pijlen voor aangrenzende kaarten.


METAR-TAF: